Time;durP1;ratioP1;P1;durP2;ratioP2;P2;SDS_P1;SDS_P2;PMS_P1;PMS_P2;Temp;Humidity;BMP_temperature;BMP_pressure;BME280_temperature;BME280_humidity;BME280_pressure;Samples;Min_cycle;Max_cycle;Signal;HPM_P1;HPM_P2
2024/01/06 00:00:28;;;;;;;25.27;24.27;;;;;;;;;;4133816;28;20039;-58
2024/01/06 00:02:30;;;;;;;26.23;24.67;;;;;;;;;;4134089;28;20062;-57
2024/01/06 00:04:32;;;;;;;26.80;25.43;;;;;;;;;;4134119;28;20050;-57
2024/01/06 00:06:33;;;;;;;25.15;24.25;;;;;;;;;;4134098;28;20452;-57
2024/01/06 00:08:35;;;;;;;26.80;25.52;;;;;;;;;;4139116;28;20041;-57
2024/01/06 00:10:37;;;;;;;25.50;24.40;;;;;;;;;;4150293;28;20045;-57
2024/01/06 00:12:41;;;;;;;25.83;24.70;;;;;;;;;;4150197;28;20379;-57
2024/01/06 00:14:45;;;;;;;24.08;23.17;;;;;;;;;;4150504;28;20034;-57
2024/01/06 00:16:49;;;;;;;27.40;26.30;;;;;;;;;;4150372;28;20042;-57
2024/01/06 00:18:50;;;;;;;26.43;25.23;;;;;;;;;;4138086;28;20042;-57
2024/01/06 00:20:52;;;;;;;25.58;24.02;;;;;;;;;;4134025;28;20042;-57
2024/01/06 00:22:58;;;;;;;26.70;25.25;;;;;;;;;;4134141;28;20548;-57
2024/01/06 00:25:00;;;;;;;27.88;26.30;;;;;;;;;;4133861;28;20054;-57
2024/01/06 00:27:02;;;;;;;28.88;26.92;;;;;;;;;;4133833;28;20427;-57
2024/01/06 00:29:03;;;;;;;27.07;26.07;;;;;;;;;;4133824;28;20181;-57
2024/01/06 00:31:06;;;;;;;27.33;25.98;;;;;;;;;;4134047;28;20418;-57
2024/01/06 00:33:07;;;;;;;;;;;;;;;;;;4134285;28;20034;-57
2024/01/06 00:35:09;;;;;;;25.42;24.25;;;;;;;;;;4133784;28;19945;-58
2024/01/06 00:37:11;;;;;;;26.57;25.57;;;;;;;;;;4133900;28;20042;-58
2024/01/06 00:39:12;;;;;;;26.80;25.87;;;;;;;;;;4132622;28;20048;-57
2024/01/06 00:41:14;;;;;;;24.90;23.80;;;;;;;;;;4133622;28;20039;-57
2024/01/06 00:43:16;;;;;;;25.65;24.83;;;;;;;;;;4133596;28;20293;-58
2024/01/06 00:45:18;;;;;;;26.33;24.87;;;;;;;;;;4133831;28;20046;-57
2024/01/06 00:47:22;;;;;;;28.10;26.40;;;;;;;;;;4133849;28;20050;-57
2024/01/06 00:49:24;;;;;;;24.52;23.92;;;;;;;;;;4133598;28;20049;-58
2024/01/06 00:51:25;;;;;;;23.23;22.15;;;;;;;;;;4133590;28;20406;-57
2024/01/06 00:53:27;;;;;;;28.65;26.80;;;;;;;;;;4146651;28;20052;-57
2024/01/06 00:55:29;;;;;;;26.90;25.53;;;;;;;;;;4149886;28;20042;-57
2024/01/06 00:57:30;;;;;;;28.05;26.05;;;;;;;;;;4135621;28;20069;-57
2024/01/06 00:59:32;;;;;;;27.70;26.20;;;;;;;;;;4133180;28;20117;-57
2024/01/06 01:01:33;;;;;;;26.80;25.63;;;;;;;;;;4133524;28;20277;-57
2024/01/06 01:03:35;;;;;;;27.13;25.63;;;;;;;;;;4133221;28;20057;-58
2024/01/06 01:05:37;;;;;;;28.65;26.50;;;;;;;;;;4133243;28;20046;-58
2024/01/06 01:07:39;;;;;;;28.83;27.60;;;;;;;;;;4133534;28;20548;-57
2024/01/06 01:09:40;;;;;;;26.90;25.80;;;;;;;;;;4146950;28;20292;-57
2024/01/06 01:11:42;;;;;;;26.52;25.13;;;;;;;;;;4133224;28;20076;-57
2024/01/06 01:13:44;;;;;;;28.00;26.40;;;;;;;;;;4131854;28;20044;-58
2024/01/06 01:15:45;;;;;;;25.80;23.83;;;;;;;;;;4131796;28;20289;-58
2024/01/06 01:17:47;;;;;;;28.07;26.17;;;;;;;;;;4132089;28;20601;-58
2024/01/06 01:19:49;;;;;;;25.57;24.47;;;;;;;;;;4131965;28;20288;-58
2024/01/06 01:21:55;;;;;;;26.73;25.17;;;;;;;;;;4141393;28;20057;-57
2024/01/06 01:23:57;;;;;;;25.30;23.55;;;;;;;;;;4148773;28;20045;-58
2024/01/06 01:25:58;;;;;;;28.58;26.35;;;;;;;;;;4148964;28;20038;-58
2024/01/06 01:28:00;;;;;;;27.00;25.00;;;;;;;;;;4149145;28;20505;-58
2024/01/06 01:30:02;;;;;;;25.80;24.67;;;;;;;;;;4148470;28;20073;-58
2024/01/06 01:32:04;;;;;;;25.90;23.98;;;;;;;;;;4148974;28;20342;-57
2024/01/06 01:34:06;;;;;;;24.65;23.55;;;;;;;;;;4149158;28;20050;-57
2024/01/06 01:36:07;;;;;;;25.23;23.85;;;;;;;;;;4149254;28;20060;-57
2024/01/06 01:38:09;;;;;;;27.15;25.23;;;;;;;;;;4149299;28;20096;-57
2024/01/06 01:40:11;;;;;;;28.27;25.93;;;;;;;;;;4148856;28;20073;-57
2024/01/06 01:42:12;;;;;;;27.33;25.85;;;;;;;;;;4149361;28;20045;-57
2024/01/06 01:44:14;;;;;;;24.40;23.07;;;;;;;;;;4149081;28;20069;-57
2024/01/06 01:46:16;;;;;;;26.30;24.63;;;;;;;;;;4147691;28;20680;-57
2024/01/06 01:48:18;;;;;;;26.58;24.85;;;;;;;;;;4148931;28;20505;-57
2024/01/06 01:50:22;;;;;;;28.92;26.92;;;;;;;;;;4149022;28;20061;-57
2024/01/06 01:52:23;;;;;;;25.63;24.17;;;;;;;;;;4148511;28;20042;-57
2024/01/06 01:54:25;;;;;;;28.70;26.97;;;;;;;;;;4148944;28;20048;-57
2024/01/06 01:56:27;;;;;;;24.63;23.50;;;;;;;;;;4138878;28;20344;-58
2024/01/06 01:58:29;;;;;;;24.95;23.52;;;;;;;;;;4131820;28;20490;-57
2024/01/06 02:00:30;;;;;;;25.92;24.58;;;;;;;;;;4132330;28;20114;-57
2024/01/06 02:02:32;;;;;;;25.92;24.77;;;;;;;;;;4132156;28;20104;-58
2024/01/06 02:04:34;;;;;;;26.23;24.53;;;;;;;;;;4132356;28;20117;-58
2024/01/06 02:06:35;;;;;;;29.00;26.85;;;;;;;;;;4131995;28;20285;-57
2024/01/06 02:08:37;;;;;;;26.45;24.80;;;;;;;;;;4137489;28;20046;-57
2024/01/06 02:10:39;;;;;;;25.40;24.05;;;;;;;;;;4142514;28;20041;-60
2024/01/06 02:12:42;;;;;;;27.33;25.42;;;;;;;;;;4132353;28;20105;-60
2024/01/06 02:14:44;;;;;;;24.98;23.95;;;;;;;;;;4132157;28;20042;-60
2024/01/06 02:16:45;;;;;;;28.02;26.67;;;;;;;;;;4132152;28;20151;-60
2024/01/06 02:18:47;;;;;;;26.83;25.47;;;;;;;;;;4132131;28;20133;-60
2024/01/06 02:20:50;;;;;;;27.23;25.90;;;;;;;;;;4132008;28;20293;-60
2024/01/06 02:22:51;;;;;;;25.50;24.15;;;;;;;;;;4132353;28;20046;-59
2024/01/06 02:24:53;;;;;;;25.25;24.27;;;;;;;;;;4132322;28;20096;-60
2024/01/06 02:26:55;;;;;;;26.10;25.13;;;;;;;;;;4132010;28;20052;-59
2024/01/06 02:28:56;;;;;;;24.95;23.83;;;;;;;;;;4132337;28;20101;-58
2024/01/06 02:30:58;;;;;;;26.88;25.48;;;;;;;;;;4130847;28;20053;-60
2024/01/06 02:33:00;;;;;;;26.42;25.38;;;;;;;;;;4132142;28;20046;-60
2024/01/06 02:35:02;;;;;;;27.88;26.88;;;;;;;;;;4132172;28;20046;-60
2024/01/06 02:37:03;;;;;;;26.30;25.08;;;;;;;;;;4131902;28;20468;-60
2024/01/06 02:39:06;;;;;;;26.97;25.73;;;;;;;;;;4131705;28;20039;-59
2024/01/06 02:41:07;;;;;;;27.30;25.67;;;;;;;;;;4131986;28;20070;-59
2024/01/06 02:43:10;;;;;;;27.37;26.17;;;;;;;;;;4130686;28;20108;-60
2024/01/06 02:45:11;;;;;;;27.98;26.63;;;;;;;;;;4130794;28;20066;-60
2024/01/06 02:47:13;;;;;;;26.03;24.83;;;;;;;;;;4131811;28;20502;-59
2024/01/06 02:49:14;;;;;;;26.75;25.15;;;;;;;;;;4131995;28;20043;-60
2024/01/06 02:51:16;;;;;;;28.10;26.67;;;;;;;;;;4131770;28;20088;-59
2024/01/06 02:53:18;;;;;;;26.15;24.95;;;;;;;;;;4144357;28;20042;-60
2024/01/06 02:55:20;;;;;;;27.25;25.92;;;;;;;;;;4147858;28;20042;-60
2024/01/06 02:57:21;;;;;;;26.00;24.67;;;;;;;;;;4134953;28;20042;-60
2024/01/06 02:59:23;;;;;;;26.37;25.03;;;;;;;;;;4131694;28;20089;-60
2024/01/06 03:01:24;;;;;;;27.80;26.60;;;;;;;;;;4131463;28;20034;-60
2024/01/06 03:03:26;;;;;;;27.00;24.83;;;;;;;;;;4131485;28;20057;-58
2024/01/06 03:05:28;;;;;;;27.48;25.90;;;;;;;;;;4131749;28;20038;-60
2024/01/06 03:07:30;;;;;;;25.60;24.50;;;;;;;;;;4131525;28;20406;-60
2024/01/06 03:09:31;;;;;;;26.83;25.77;;;;;;;;;;4144138;28;20486;-60
2024/01/06 03:11:33;;;;;;;25.67;24.73;;;;;;;;;;4147471;28;20037;-60
2024/01/06 03:13:34;;;;;;;28.23;26.48;;;;;;;;;;4144558;28;20057;-59
2024/01/06 03:15:36;;;;;;;27.63;25.98;;;;;;;;;;4146056;28;20548;-60
2024/01/06 03:17:38;;;;;;;26.48;24.85;;;;;;;;;;4150303;28;20096;-60
2024/01/06 03:19:40;;;;;;;26.27;25.20;;;;;;;;;;4151760;28;20478;-60
2024/01/06 03:21:42;;;;;;;25.27;24.07;;;;;;;;;;4151548;28;20046;-60
2024/01/06 03:23:43;;;;;;;26.33;25.13;;;;;;;;;;4151638;28;20453;-59
2024/01/06 03:25:45;;;;;;;26.67;25.53;;;;;;;;;;4151918;28;20041;-59
2024/01/06 03:27:46;;;;;;;25.10;24.00;;;;;;;;;;4150171;28;20082;-59
2024/01/06 03:29:48;;;;;;;26.80;25.40;;;;;;;;;;4151881;28;20045;-60
2024/01/06 03:31:50;;;;;;;26.88;25.23;;;;;;;;;;4153246;28;20061;-59
2024/01/06 03:33:53;;;;;;;26.13;24.93;;;;;;;;;;4153015;28;20038;-59
2024/01/06 03:35:55;;;;;;;24.80;23.17;;;;;;;;;;4152927;28;20284;-60
2024/01/06 03:37:57;;;;;;;25.10;23.77;;;;;;;;;;4152898;28;20132;-59
2024/01/06 03:39:58;;;;;;;24.10;22.83;;;;;;;;;;4153181;28;20033;-60
2024/01/06 03:42:00;;;;;;;24.23;22.63;;;;;;;;;;4153092;28;20293;-60
2024/01/06 03:44:02;;;;;;;26.60;25.27;;;;;;;;;;4153084;28;20045;-59
2024/01/06 03:46:04;;;;;;;23.83;23.03;;;;;;;;;;4152999;28;20041;-60
2024/01/06 03:48:06;;;;;;;23.63;22.30;;;;;;;;;;4149740;28;20046;-59
2024/01/06 03:50:09;;;;;;;24.52;23.33;;;;;;;;;;4136621;28;20473;-60
2024/01/06 03:52:10;;;;;;;26.27;24.70;;;;;;;;;;4140514;28;20044;-60
2024/01/06 03:54:12;;;;;;;25.25;24.05;;;;;;;;;;4152809;28;20087;-60
2024/01/06 03:56:13;;;;;;;26.50;25.17;;;;;;;;;;4148829;28;20065;-59
2024/01/06 03:58:15;;;;;;;28.70;26.50;;;;;;;;;;4136826;28;20042;-60
2024/01/06 04:00:17;;;;;;;23.90;22.80;;;;;;;;;;4136228;28;20495;-60
2024/01/06 04:02:18;;;;;;;25.25;24.23;;;;;;;;;;4136293;28;20498;-60
2024/01/06 04:04:20;;;;;;;27.40;25.80;;;;;;;;;;4136434;28;20051;-59
2024/01/06 04:06:22;;;;;;;25.10;23.90;;;;;;;;;;4136685;28;20046;-60
2024/01/06 04:08:24;;;;;;;24.70;23.77;;;;;;;;;;4140104;28;20069;-60
2024/01/06 04:10:25;;;;;;;26.10;24.63;;;;;;;;;;4151587;28;20705;-59
2024/01/06 04:12:27;;;;;;;25.50;24.00;;;;;;;;;;4152902;28;20048;-59
2024/01/06 04:14:28;;;;;;;23.02;21.98;;;;;;;;;;4152878;28;20044;-60
2024/01/06 04:16:30;;;;;;;23.75;23.15;;;;;;;;;;4152821;28;20072;-60
2024/01/06 04:18:32;;;;;;;24.70;23.30;;;;;;;;;;4152988;28;20038;-60
2024/01/06 04:20:34;;;;;;;21.77;20.42;;;;;;;;;;4152594;28;20065;-59
2024/01/06 04:22:35;;;;;;;20.73;19.90;;;;;;;;;;4152712;28;20053;-60
2024/01/06 04:24:37;;;;;;;24.00;22.92;;;;;;;;;;4152751;28;20643;-59
2024/01/06 04:26:39;;;;;;;22.00;20.95;;;;;;;;;;4152765;28;20069;-60
2024/01/06 04:28:40;;;;;;;23.67;22.77;;;;;;;;;;4150049;28;20046;-60
2024/01/06 04:30:42;;;;;;;22.47;21.47;;;;;;;;;;4150218;28;20046;-57
2024/01/06 04:32:44;;;;;;;22.30;21.52;;;;;;;;;;4150090;28;20056;-58
2024/01/06 04:34:45;;;;;;;22.53;21.23;;;;;;;;;;4148778;28;20026;-57
2024/01/06 04:36:48;;;;;;;23.27;22.37;;;;;;;;;;4150003;28;20318;-57
2024/01/06 04:38:50;;;;;;;20.15;19.38;;;;;;;;;;4149967;28;20498;-57
2024/01/06 04:40:52;;;;;;;22.70;21.80;;;;;;;;;;4149879;28;20038;-58
2024/01/06 04:42:53;;;;;;;22.87;22.20;;;;;;;;;;4149901;28;20037;-57
2024/01/06 04:44:55;;;;;;;21.67;20.95;;;;;;;;;;4140952;28;20038;-58
2024/01/06 04:46:57;;;;;;;23.23;22.52;;;;;;;;;;4148412;28;20050;-58
2024/01/06 04:48:58;;;;;;;24.05;23.02;;;;;;;;;;4133867;28;20106;-57
2024/01/06 04:51:03;;;;;;;22.63;22.00;;;;;;;;;;4133468;28;20093;-58
2024/01/06 04:53:04;;;;;;;24.17;23.55;;;;;;;;;;4144462;28;20048;-57
2024/01/06 04:55:06;;;;;;;23.27;22.35;;;;;;;;;;4133391;28;20046;-57
2024/01/06 04:57:08;;;;;;;24.33;23.40;;;;;;;;;;4133687;28;20042;-57
2024/01/06 04:59:09;;;;;;;24.45;23.13;;;;;;;;;;4133480;28;20046;-58
2024/01/06 05:01:12;;;;;;;23.97;23.23;;;;;;;;;;4133018;28;20042;-58
2024/01/06 05:03:13;;;;;;;24.48;23.58;;;;;;;;;;4133075;28;20057;-57
2024/01/06 05:05:15;;;;;;;21.10;20.50;;;;;;;;;;4133672;28;20050;-57
2024/01/06 05:07:17;;;;;;;22.83;21.67;;;;;;;;;;4133108;28;20717;-57
2024/01/06 05:09:18;;;;;;;24.52;23.70;;;;;;;;;;4143955;28;20388;-57
2024/01/06 05:11:20;;;;;;;23.88;22.90;;;;;;;;;;4164603;28;20096;-57
2024/01/06 05:13:21;;;;;;;24.65;23.70;;;;;;;;;;4149794;28;20099;-57
2024/01/06 05:15:23;;;;;;;23.03;22.13;;;;;;;;;;4149329;28;20045;-57
2024/01/06 05:17:25;;;;;;;25.33;24.30;;;;;;;;;;4149869;28;20292;-57
2024/01/06 05:19:27;;;;;;;24.13;23.23;;;;;;;;;;4149722;28;20034;-58
2024/01/06 05:21:31;;;;;;;24.73;24.10;;;;;;;;;;4149435;28;20071;-57
2024/01/06 05:23:33;;;;;;;23.50;22.63;;;;;;;;;;4149514;28;20148;-57
2024/01/06 05:25:35;;;;;;;24.13;23.53;;;;;;;;;;4149076;28;20046;-57
2024/01/06 05:27:36;;;;;;;25.67;24.40;;;;;;;;;;4149203;28;20037;-58
2024/01/06 05:29:38;;;;;;;22.70;21.77;;;;;;;;;;4149126;28;20125;-57
2024/01/06 05:31:40;;;;;;;24.17;23.35;;;;;;;;;;4149210;28;20288;-57
2024/01/06 05:33:42;;;;;;;23.02;22.42;;;;;;;;;;4148940;28;20041;-57
2024/01/06 05:35:44;;;;;;;26.52;25.10;;;;;;;;;;4148983;28;20050;-57
2024/01/06 05:37:46;;;;;;;25.40;24.45;;;;;;;;;;4149020;28;20406;-56
2024/01/06 05:39:47;;;;;;;24.73;24.17;;;;;;;;;;4148517;28;20062;-57
2024/01/06 05:41:49;;;;;;;25.00;24.33;;;;;;;;;;4136128;28;20053;-58
2024/01/06 05:43:50;;;;;;;25.63;24.73;;;;;;;;;;4132691;28;20081;-57
2024/01/06 05:45:52;;;;;;;24.43;23.80;;;;;;;;;;4132761;28;20050;-57
2024/01/06 05:47:54;;;;;;;25.27;23.77;;;;;;;;;;4132810;28;20047;-57
2024/01/06 05:49:55;;;;;;;22.92;22.25;;;;;;;;;;4132832;28;20537;-57
2024/01/06 05:51:57;;;;;;;23.98;23.20;;;;;;;;;;4134358;28;20077;-58
2024/01/06 05:53:59;;;;;;;24.42;23.70;;;;;;;;;;4148860;28;20568;-57
2024/01/06 05:56:01;;;;;;;21.95;21.45;;;;;;;;;;4139491;28;20038;-58
2024/01/06 05:58:03;;;;;;;22.30;21.60;;;;;;;;;;4132507;28;20046;-58
2024/01/06 06:00:07;;;;;;;24.30;22.55;;;;;;;;;;4132543;28;20038;-57
2024/01/06 06:02:09;;;;;;;23.63;23.00;;;;;;;;;;4131775;28;20054;-57
2024/01/06 06:04:11;;;;;;;24.50;23.55;;;;;;;;;;4132591;28;20054;-57
2024/01/06 06:06:13;;;;;;;23.45;22.75;;;;;;;;;;4147102;28;20053;-57
2024/01/06 06:08:15;;;;;;;25.17;24.17;;;;;;;;;;4134499;28;20042;-57
2024/01/06 06:10:18;;;;;;;22.52;21.17;;;;;;;;;;4147080;28;20045;-57
2024/01/06 06:12:20;;;;;;;21.52;20.90;;;;;;;;;;4148624;28;20143;-57
2024/01/06 06:14:22;;;;;;;24.10;23.45;;;;;;;;;;4148510;28;20042;-57
2024/01/06 06:16:26;;;;;;;20.35;20.05;;;;;;;;;;4148357;28;20037;-57
2024/01/06 06:18:27;;;;;;;22.33;21.63;;;;;;;;;;4148545;28;20065;-57
2024/01/06 06:20:29;;;;;;;22.00;21.35;;;;;;;;;;4147035;28;20513;-57
2024/01/06 06:22:55;;;;;;;22.42;21.80;;;;;;;;;;4148460;28;20026;-58
2024/01/06 06:24:57;;;;;;;20.63;20.43;;;;;;;;;;4148237;28;20042;-57
2024/01/06 06:26:59;;;;;;;23.02;22.73;;;;;;;;;;4148280;28;20561;-57
2024/01/06 06:29:01;;;;;;;23.53;22.90;;;;;;;;;;4148230;28;20490;-58
2024/01/06 06:31:03;;;;;;;19.42;18.92;;;;;;;;;;4148575;28;20045;-58
2024/01/06 06:33:05;;;;;;;;;;;;;;;;;;4148591;28;20045;-57
2024/01/06 06:35:07;;;;;;;20.30;20.05;;;;;;;;;;4148283;28;19922;-58
2024/01/06 06:37:08;;;;;;;20.73;20.33;;;;;;;;;;4142743;28;20039;-57
2024/01/06 06:39:10;;;;;;;22.17;21.63;;;;;;;;;;4131252;28;20038;-57
2024/01/06 06:41:12;;;;;;;22.20;21.80;;;;;;;;;;4115540;28;20043;-57
2024/01/06 06:43:14;;;;;;;23.45;22.92;;;;;;;;;;4115920;28;20089;-57
2024/01/06 06:45:22;;;;;;;20.77;20.42;;;;;;;;;;4128138;28;20058;-58
2024/01/06 06:47:24;;;;;;;21.13;20.63;;;;;;;;;;4125272;28;20061;-57
2024/01/06 06:49:25;;;;;;;20.50;20.13;;;;;;;;;;4122345;28;20656;-57
2024/01/06 06:51:27;;;;;;;22.73;22.13;;;;;;;;;;4131151;28;20046;-58
2024/01/06 06:53:29;;;;;;;21.92;21.42;;;;;;;;;;4137411;28;20292;-57
2024/01/06 06:55:31;;;;;;;23.43;22.93;;;;;;;;;;4129357;28;20036;-58
2024/01/06 06:57:32;;;;;;;23.57;23.10;;;;;;;;;;4125190;28;20081;-57
2024/01/06 06:59:34;;;;;;;22.70;22.15;;;;;;;;;;4130283;28;20329;-57
2024/01/06 07:01:36;;;;;;;22.10;21.65;;;;;;;;;;4115416;28;20129;-57
2024/01/06 07:03:38;;;;;;;20.27;19.60;;;;;;;;;;4120483;28;20042;-57
2024/01/06 07:05:39;;;;;;;23.40;23.03;;;;;;;;;;4120870;28;20047;-58
2024/01/06 07:07:46;;;;;;;22.20;21.80;;;;;;;;;;4130927;28;20050;-57
2024/01/06 07:09:48;;;;;;;18.35;18.10;;;;;;;;;;4146201;28;20052;-58
2024/01/06 07:11:50;;;;;;;22.60;22.00;;;;;;;;;;4147903;28;20049;-57
2024/01/06 07:13:51;;;;;;;22.02;21.63;;;;;;;;;;4147896;28;20089;-57
2024/01/06 07:15:53;;;;;;;24.03;23.63;;;;;;;;;;4147952;28;20038;-57
2024/01/06 07:18:08;;;;;;;21.52;20.92;;;;;;;;;;4147850;28;20088;-57
2024/01/06 07:20:10;;;;;;;23.50;23.05;;;;;;;;;;4147795;28;20042;-58
2024/01/06 07:22:12;;;;;;;25.48;24.70;;;;;;;;;;4147542;28;20502;-57
2024/01/06 07:24:14;;;;;;;23.48;22.88;;;;;;;;;;4147504;28;20096;-57
2024/01/06 07:26:15;;;;;;;23.27;22.95;;;;;;;;;;4147699;28;20057;-57
2024/01/06 07:28:17;;;;;;;21.88;21.48;;;;;;;;;;4147777;28;20045;-57
2024/01/06 07:30:19;;;;;;;22.10;21.80;;;;;;;;;;4147486;28;20074;-58
2024/01/06 07:32:22;;;;;;;22.47;22.07;;;;;;;;;;4143156;28;20506;-57
2024/01/06 07:34:25;;;;;;;21.95;21.65;;;;;;;;;;4121966;28;20108;-57
2024/01/06 07:36:27;;;;;;;22.17;21.88;;;;;;;;;;4130499;28;20089;-57
2024/01/06 07:38:30;;;;;;;22.50;21.83;;;;;;;;;;4131452;28;20133;-57
2024/01/06 07:40:32;;;;;;;23.55;23.05;;;;;;;;;;4130419;28;20035;-57
2024/01/06 07:42:34;;;;;;;23.90;23.30;;;;;;;;;;4124927;28;20042;-56
2024/01/06 07:44:35;;;;;;;23.30;22.90;;;;;;;;;;4125372;28;20042;-57
2024/01/06 07:46:38;;;;;;;23.63;23.13;;;;;;;;;;4124048;28;20061;-57
2024/01/06 07:48:40;;;;;;;21.17;20.88;;;;;;;;;;4131431;28;20046;-57
2024/01/06 07:50:42;;;;;;;22.05;21.63;;;;;;;;;;4127572;28;20126;-57
2024/01/06 07:52:44;;;;;;;21.05;20.75;;;;;;;;;;4136511;28;20048;-57
2024/01/06 07:54:45;;;;;;;23.17;22.27;;;;;;;;;;4134104;28;20042;-57
2024/01/06 07:56:47;;;;;;;24.20;23.77;;;;;;;;;;4131344;28;20113;-57
2024/01/06 07:58:49;;;;;;;21.97;21.57;;;;;;;;;;4131428;28;20093;-57
2024/01/06 08:00:50;;;;;;;22.05;21.70;;;;;;;;;;4130853;28;20297;-57
2024/01/06 08:02:52;;;;;;;23.73;22.88;;;;;;;;;;4131373;28;20050;-57
2024/01/06 08:04:55;;;;;;;26.17;25.27;;;;;;;;;;4134470;28;20070;-57
2024/01/06 08:06:57;;;;;;;25.48;24.77;;;;;;;;;;4131776;28;20070;-58
2024/01/06 08:08:58;;;;;;;31.83;30.27;;;;;;;;;;4127464;28;20061;-58
2024/01/06 08:11:00;;;;;;;28.03;26.87;;;;;;;;;;4134225;28;20042;-58
2024/01/06 08:13:02;;;;;;;23.03;22.13;;;;;;;;;;4134132;28;20128;-61
2024/01/06 08:15:04;;;;;;;22.20;21.80;;;;;;;;;;4133906;28;20046;-61
2024/01/06 08:17:06;;;;;;;22.95;22.42;;;;;;;;;;4134069;28;20038;-60
2024/01/06 08:19:08;;;;;;;26.97;25.67;;;;;;;;;;4128363;28;20046;-61
2024/01/06 08:21:10;;;;;;;28.42;27.10;;;;;;;;;;4126520;28;20372;-59
2024/01/06 08:23:11;;;;;;;23.25;22.33;;;;;;;;;;4133867;28;20045;-60
2024/01/06 08:25:13;;;;;;;25.07;24.17;;;;;;;;;;4133867;28;20049;-60
2024/01/06 08:27:15;;;;;;;21.25;20.73;;;;;;;;;;4133956;28;20042;-60
2024/01/06 08:29:19;;;;;;;20.88;20.45;;;;;;;;;;4133517;28;20502;-61
2024/01/06 08:31:22;;;;;;;23.10;22.67;;;;;;;;;;4133650;28;20042;-60
2024/01/06 08:33:24;;;;;;;20.02;19.83;;;;;;;;;;4128422;28;20146;-60
2024/01/06 08:35:26;;;;;;;;;;;;;;;;;;4127572;28;20517;-60
2024/01/06 08:37:27;;;;;;;19.50;19.30;;;;;;;;;;4126423;28;19922;-60
2024/01/06 08:39:29;;;;;;;23.07;22.77;;;;;;;;;;4117791;28;20039;-60
2024/01/06 08:41:31;;;;;;;24.20;23.80;;;;;;;;;;4117804;28;20054;-61
2024/01/06 08:43:32;;;;;;;19.23;19.02;;;;;;;;;;4117610;28;20046;-59
2024/01/06 08:45:34;;;;;;;20.13;19.77;;;;;;;;;;4132786;28;20047;-59
2024/01/06 08:47:36;;;;;;;;;;;;;;;;;;4133913;28;20466;-60
2024/01/06 08:49:38;;;;;;;21.77;21.38;;;;;;;;;;4133628;28;19964;-60
2024/01/06 08:51:39;;;;;;;23.48;23.08;;;;;;;;;;4133440;28;20372;-60
2024/01/06 08:53:41;;;;;;;24.47;24.07;;;;;;;;;;4137147;28;20506;-60
2024/01/06 08:55:43;;;;;;;24.63;24.25;;;;;;;;;;4133378;28;20786;-60
2024/01/06 08:57:47;;;;;;;21.38;21.08;;;;;;;;;;4132507;28;20059;-60
2024/01/06 08:59:49;;;;;;;24.85;24.45;;;;;;;;;;4131409;28;20042;-60
2024/01/06 09:01:50;;;;;;;23.75;23.35;;;;;;;;;;4128405;28;20516;-59
2024/01/06 09:03:52;;;;;;;23.67;23.05;;;;;;;;;;4131761;28;20404;-59
2024/01/06 09:05:55;;;;;;;24.33;24.02;;;;;;;;;;4133461;28;20046;-60
2024/01/06 09:07:57;;;;;;;22.63;21.92;;;;;;;;;;4132394;28;20054;-59
2024/01/06 09:09:59;;;;;;;22.70;22.17;;;;;;;;;;4117099;28;20042;-60
2024/01/06 09:12:01;;;;;;;23.48;22.95;;;;;;;;;;4120642;28;20072;-60
2024/01/06 09:14:02;;;;;;;23.93;23.43;;;;;;;;;;4131927;28;20475;-60
2024/01/06 09:16:04;;;;;;;22.98;22.50;;;;;;;;;;4131754;28;20101;-59
2024/01/06 09:18:06;;;;;;;23.37;22.87;;;;;;;;;;4132008;28;20085;-60
2024/01/06 09:20:08;;;;;;;24.15;23.50;;;;;;;;;;4132240;28;20281;-60
2024/01/06 09:22:09;;;;;;;25.42;24.63;;;;;;;;;;4133184;28;20042;-60
2024/01/06 09:24:11;;;;;;;24.30;23.73;;;;;;;;;;4132869;28;20042;-59
2024/01/06 09:26:13;;;;;;;23.23;22.90;;;;;;;;;;4132844;28;20533;-60
2024/01/06 09:28:14;;;;;;;23.35;23.05;;;;;;;;;;4132520;28;20078;-60
2024/01/06 09:30:16;;;;;;;23.40;22.92;;;;;;;;;;4131967;28;20048;-60
2024/01/06 09:32:18;;;;;;;23.77;23.38;;;;;;;;;;4132372;28;20073;-60
2024/01/06 09:34:20;;;;;;;19.98;19.58;;;;;;;;;;4132774;28;20084;-59
2024/01/06 09:36:22;;;;;;;;;;;;;;;;;;4132386;28;20121;-60
2024/01/06 09:38:23;;;;;;;21.15;20.90;;;;;;;;;;4133139;28;19922;-59
2024/01/06 09:40:25;;;;;;;21.48;21.20;;;;;;;;;;4132682;28;20118;-60
2024/01/06 09:42:27;;;;;;;21.98;21.42;;;;;;;;;;4133361;28;20101;-59
2024/01/06 09:44:28;;;;;;;20.07;19.77;;;;;;;;;;4132536;28;20614;-59
2024/01/06 09:46:31;;;;;;;22.75;22.30;;;;;;;;;;4132714;28;20289;-59
2024/01/06 09:48:35;;;;;;;20.70;19.83;;;;;;;;;;4132483;28;20065;-60
2024/01/06 09:50:38;;;;;;;21.48;21.08;;;;;;;;;;4132299;28;20050;-60
2024/01/06 09:52:44;;;;;;;19.27;18.98;;;;;;;;;;4140122;28;20120;-59
2024/01/06 09:54:50;;;;;;;20.00;19.80;;;;;;;;;;4148766;28;20119;-60
2024/01/06 09:56:52;;;;;;;22.10;21.33;;;;;;;;;;4138990;28;20043;-60
2024/01/06 09:58:54;;;;;;;23.75;22.95;;;;;;;;;;4132335;28;20050;-59
2024/01/06 10:00:56;;;;;;;20.52;20.23;;;;;;;;;;4132231;28;20038;-59
2024/01/06 10:02:58;;;;;;;22.25;21.90;;;;;;;;;;4131983;28;20549;-62
2024/01/06 10:04:59;;;;;;;22.00;21.27;;;;;;;;;;4132038;28;20038;-64
2024/01/06 10:07:01;;;;;;;21.05;20.67;;;;;;;;;;4123523;28;20297;-63
2024/01/06 10:09:05;;;;;;;20.55;20.05;;;;;;;;;;4132758;28;20130;-63
2024/01/06 10:11:08;;;;;;;21.00;20.48;;;;;;;;;;4131862;28;20052;-63
2024/01/06 10:13:09;;;;;;;20.10;19.70;;;;;;;;;;4131976;28;20049;-63
2024/01/06 10:15:11;;;;;;;17.63;17.13;;;;;;;;;;4129159;28;20050;-63
2024/01/06 10:17:14;;;;;;;15.48;14.93;;;;;;;;;;4119855;28;20046;-63
2024/01/06 10:19:16;;;;;;;21.90;20.95;;;;;;;;;;4118446;28;20039;-63
2024/01/06 10:21:20;;;;;;;19.55;19.02;;;;;;;;;;4123364;28;20038;-63
2024/01/06 10:23:26;;;;;;;22.42;21.55;;;;;;;;;;4128506;28;20039;-63
2024/01/06 10:25:28;;;;;;;18.38;17.95;;;;;;;;;;4126888;28;20399;-63
2024/01/06 10:27:29;;;;;;;18.53;17.87;;;;;;;;;;4120167;28;20113;-63
2024/01/06 10:29:31;;;;;;;21.50;21.30;;;;;;;;;;4124856;28;20289;-63
2024/01/06 10:31:33;;;;;;;20.50;20.23;;;;;;;;;;4119286;28;20129;-62
2024/01/06 10:33:35;;;;;;;20.02;19.52;;;;;;;;;;4128956;28;20113;-63
2024/01/06 10:35:37;;;;;;;23.38;22.83;;;;;;;;;;4120655;28;20069;-63
2024/01/06 10:37:41;;;;;;;21.95;21.55;;;;;;;;;;4125244;28;20039;-63
2024/01/06 10:39:43;;;;;;;21.08;20.58;;;;;;;;;;4116871;28;20049;-63
2024/01/06 10:41:46;;;;;;;24.45;23.50;;;;;;;;;;4120413;28;20053;-63
2024/01/06 10:43:47;;;;;;;;;;;;;;;;;;4129637;28;20465;-63
2024/01/06 10:45:50;;;;;;;23.33;22.67;;;;;;;;;;4129556;28;19965;-62
2024/01/06 10:47:53;;;;;;;25.98;24.75;;;;;;;;;;4132201;28;20129;-63
2024/01/06 10:49:58;;;;;;;22.48;21.85;;;;;;;;;;4126823;28;20093;-63
2024/01/06 10:52:03;;;;;;;21.98;21.58;;;;;;;;;;4133971;28;20436;-63
2024/01/06 10:54:05;;;;;;;22.70;22.27;;;;;;;;;;4142749;28;20112;-64
2024/01/06 10:56:13;;;;;;;24.30;23.60;;;;;;;;;;4129973;28;20072;-63
2024/01/06 10:58:16;;;;;;;21.63;21.15;;;;;;;;;;4122713;28;20039;-63
2024/01/06 11:00:18;;;;;;;23.17;22.40;;;;;;;;;;4123780;28;20053;-63
2024/01/06 11:02:20;;;;;;;23.00;22.42;;;;;;;;;;4124741;28;20528;-62
2024/01/06 11:04:22;;;;;;;23.65;23.10;;;;;;;;;;4128196;28;20038;-62
2024/01/06 11:06:24;;;;;;;25.88;24.92;;;;;;;;;;4123681;28;20121;-62
2024/01/06 11:08:28;;;;;;;24.88;24.17;;;;;;;;;;4123548;28;20038;-62
2024/01/06 11:10:31;;;;;;;24.25;23.75;;;;;;;;;;4127662;28;20100;-62
2024/01/06 11:12:33;;;;;;;26.02;25.10;;;;;;;;;;4130749;28;20109;-63
2024/01/06 11:14:37;;;;;;;24.70;23.98;;;;;;;;;;4129341;28;20077;-62
2024/01/06 11:16:39;;;;;;;23.60;22.90;;;;;;;;;;4128770;28;20039;-63
2024/01/06 11:18:41;;;;;;;24.87;24.20;;;;;;;;;;4129544;28;20085;-62
2024/01/06 11:21:03;;;;;;;24.40;23.85;;;;;;;;;;4124495;28;20650;-63
2024/01/06 11:23:23;;;;;;;24.90;24.02;;;;;;;;;;4115279;28;20515;-62
2024/01/06 11:25:25;;;;;;;25.65;25.02;;;;;;;;;;4127355;28;20078;-62
2024/01/06 11:27:30;;;;;;;26.73;25.92;;;;;;;;;;4130659;28;20035;-62
2024/01/06 11:29:31;;;;;;;24.55;23.92;;;;;;;;;;4126153;28;20034;-63
2024/01/06 11:31:34;;;;;;;24.30;23.80;;;;;;;;;;4117732;28;20030;-63
2024/01/06 11:33:42;;;;;;;22.27;21.60;;;;;;;;;;4128404;28;20046;-63
2024/01/06 11:35:49;;;;;;;25.42;24.83;;;;;;;;;;4127399;28;20081;-63
2024/01/06 11:37:52;;;;;;;21.13;20.73;;;;;;;;;;4121730;28;20045;-62
2024/01/06 11:39:54;;;;;;;21.95;21.50;;;;;;;;;;4124239;28;20038;-63
2024/01/06 11:41:57;;;;;;;24.00;23.58;;;;;;;;;;4133739;28;20395;-63
2024/01/06 11:43:58;;;;;;;21.92;21.52;;;;;;;;;;4127919;28;20050;-63
2024/01/06 11:46:02;;;;;;;22.63;22.10;;;;;;;;;;4131804;28;20050;-63
2024/01/06 11:48:08;;;;;;;21.35;21.05;;;;;;;;;;4125822;28;20105;-63
2024/01/06 11:50:10;;;;;;;24.27;23.77;;;;;;;;;;4123406;28;20050;-62
2024/01/06 11:52:12;;;;;;;28.60;27.23;;;;;;;;;;4124831;28;20125;-62